Time;durP1;ratioP1;P1;durP2;ratioP2;P2;SDS_P1;SDS_P2;PMS_P1;PMS_P2;Temp;Humidity;BMP_temperature;BMP_pressure;BME280_temperature;BME280_humidity;BME280_pressure;Samples;Min_cycle;Max_cycle;Signal;HPM_P1;HPM_P2
2022/11/27 00:01:25;;;;;;;17.17;10.10;;;2.30;99.90;;;;;;5038440;28;20287;-85
2022/11/27 00:03:52;;;;;;;12.83;8.40;;;2.20;99.90;;;;;;5038376;28;20177;-85
2022/11/27 00:06:21;;;;;;;16.70;8.83;;;2.20;99.90;;;;;;5057734;28;20215;-85
2022/11/27 00:08:47;;;;;;;12.70;7.53;;;2.30;99.90;;;;;;5058041;28;20188;-85
2022/11/27 00:11:19;;;;;;;18.73;8.17;;;2.20;99.90;;;;;;5058014;28;20195;-85
2022/11/27 00:13:45;;;;;;;15.97;8.93;;;2.20;99.90;;;;;;5057901;28;20242;-85
2022/11/27 00:16:12;;;;;;;18.87;7.97;;;2.20;99.90;;;;;;5074747;28;20197;-85
2022/11/27 00:18:39;;;;;;;16.77;7.60;;;2.20;99.90;;;;;;5057784;28;20187;-85
2022/11/27 00:21:12;;;;;;;14.27;7.90;;;2.30;99.90;;;;;;5054585;28;20181;-85
2022/11/27 00:23:38;;;;;;;14.47;8.07;;;2.30;99.90;;;;;;5055188;28;20555;-85
2022/11/27 00:26:05;;;;;;;12.97;7.90;;;2.40;99.90;;;;;;5060892;28;20200;-85
2022/11/27 00:28:31;;;;;;;9.83;6.93;;;2.40;99.90;;;;;;5038642;28;20178;-85
2022/11/27 00:30:59;;;;;;;13.83;8.10;;;2.40;99.90;;;;;;5038074;28;20193;-85
2022/11/27 00:33:24;;;;;;;19.47;8.00;;;2.40;99.90;;;;;;5072343;28;20196;-85
2022/11/27 00:35:50;;;;;;;19.23;8.70;;;2.50;99.90;;;;;;5070031;28;20208;-85
2022/11/27 00:38:16;;;;;;;17.40;8.40;;;2.40;99.90;;;;;;5052658;28;20181;-85
2022/11/27 00:40:46;;;;;;;12.83;7.70;;;2.40;99.90;;;;;;5045656;28;20244;-85
2022/11/27 00:43:12;;;;;;;13.93;7.63;;;2.30;99.90;;;;;;5057678;28;20184;-85
2022/11/27 00:45:38;;;;;;;11.23;7.40;;;2.40;99.90;;;;;;5057737;28;20200;-85
2022/11/27 00:48:04;;;;;;;14.20;7.80;;;2.40;99.90;;;;;;5057678;28;20251;-85
2022/11/27 00:50:31;;;;;;;15.20;8.93;;;2.40;99.90;;;;;;5058028;28;20173;-85
2022/11/27 00:53:00;;;;;;;16.53;10.13;;;2.30;99.90;;;;;;5054262;28;20170;-85
2022/11/27 00:55:26;;;;;;;21.53;8.50;;;2.30;99.90;;;;;;5072982;28;20205;-85
2022/11/27 00:57:52;;;;;;;16.27;8.90;;;2.30;99.90;;;;;;5074292;28;20172;-85
2022/11/27 01:00:18;;;;;;;34.60;8.60;;;2.30;99.90;;;;;;5057661;28;20187;-85
2022/11/27 01:02:44;;;;;;;19.10;7.83;;;2.30;99.90;;;;;;5057727;28;20203;-85
2022/11/27 01:05:10;;;;;;;20.63;7.97;;;2.30;99.90;;;;;;5057770;28;20203;-85
2022/11/27 01:07:36;;;;;;;21.77;8.67;;;2.20;99.90;;;;;;5058794;28;20176;-85
2022/11/27 01:10:02;;;;;;;11.23;7.67;;;2.20;99.90;;;;;;5061247;28;20191;-85
2022/11/27 01:12:28;;;;;;;10.60;7.43;;;2.20;99.90;;;;;;5061344;28;20260;-85
2022/11/27 01:14:53;;;;;;;14.73;7.33;;;2.20;99.90;;;;;;5061336;28;20303;-85
2022/11/27 01:17:19;;;;;;;19.47;8.07;;;2.20;99.90;;;;;;5061102;28;20191;-85
2022/11/27 01:19:45;;;;;;;17.43;7.73;;;2.20;99.90;;;;;;5061155;28;20198;-85
2022/11/27 01:22:14;;;;;;;9.87;6.93;;;2.10;99.90;;;;;;5060839;28;20184;-85
2022/11/27 01:24:40;;;;;;;8.77;6.73;;;2.00;99.90;;;;;;5095518;28;20188;-85
2022/11/27 01:27:06;;;;;;;17.43;6.70;;;2.00;99.90;;;;;;5060612;28;20177;-85
2022/11/27 01:29:32;;;;;;;11.77;6.73;;;2.00;99.90;;;;;;5060742;28;20177;-85
2022/11/27 01:31:57;;;;;;;10.87;7.07;;;2.00;99.90;;;;;;5060898;28;20222;-85
2022/11/27 01:34:23;;;;;;;10.53;6.73;;;2.00;99.90;;;;;;5060609;28;20265;-85
2022/11/27 01:36:49;;;;;;;9.90;7.40;;;2.00;99.90;;;;;;5095223;28;20269;-85
2022/11/27 01:39:18;;;;;;;9.13;6.87;;;1.90;99.90;;;;;;5077531;28;20176;-85
2022/11/27 01:41:45;;;;;;;13.20;7.47;;;1.90;99.90;;;;;;5077352;28;20168;-86
2022/11/27 01:44:23;;;;;;;12.30;7.73;;;1.90;99.90;;;;;;5060514;28;20212;-85
2022/11/27 01:47:02;;;;;;;10.60;7.13;;;1.90;99.90;;;;;;5076891;28;20207;-84
2022/11/27 01:49:34;;;;;;;9.27;6.47;;;1.90;99.90;;;;;;5059837;28;20184;-86
2022/11/27 01:52:09;;;;;;;8.80;6.57;;;1.90;99.90;;;;;;5060745;28;20179;-86
2022/11/27 01:54:40;;;;;;;8.60;6.30;;;1.80;99.90;;;;;;5060512;28;20192;-85
2022/11/27 01:57:16;;;;;;;9.03;6.30;;;1.80;99.90;;;;;;5076801;28;20180;-85
2022/11/27 01:59:44;;;;;;;18.17;7.00;;;1.80;99.90;;;;;;5060242;28;20175;-85
2022/11/27 02:02:10;;;;;;;10.17;6.63;;;1.70;99.90;;;;;;5060175;28;20202;-86
2022/11/27 02:04:36;;;;;;;9.40;6.03;;;1.70;99.90;;;;;;5077067;28;20259;-85
2022/11/27 02:07:02;;;;;;;15.93;6.57;;;1.70;99.90;;;;;;5059931;28;20200;-85
2022/11/27 02:09:29;;;;;;;7.80;6.00;;;1.70;99.90;;;;;;5060103;28;20187;-86
2022/11/27 02:12:10;;;;;;;14.40;6.93;;;1.70;99.90;;;;;;5060108;28;20202;-85
2022/11/27 02:14:53;;;;;;;8.43;6.10;;;1.60;99.90;;;;;;5070830;28;20204;-85
2022/11/27 02:17:21;;;;;;;13.20;5.80;;;1.60;99.90;;;;;;5059960;28;20202;-85
2022/11/27 02:20:01;;;;;;;11.63;7.30;;;1.60;99.90;;;;;;5072688;28;20268;-85
2022/11/27 02:22:59;;;;;;;19.03;6.17;;;1.60;99.90;;;;;;5040141;28;20252;-85
2022/11/27 02:25:24;;;;;;;11.73;5.60;;;1.60;99.90;;;;;;5006540;28;20208;-85
2022/11/27 02:28:17;;;;;;;25.93;7.00;;;1.60;99.90;;;;;;5039738;28;20173;-85
2022/11/27 02:30:49;;;;;;;6.40;5.23;;;1.50;99.90;;;;;;5073270;28;20165;-85
2022/11/27 02:33:19;;;;;;;7.33;5.63;;;1.50;99.90;;;;;;5083058;28;20177;-85
2022/11/27 02:36:06;;;;;;;8.50;5.33;;;1.50;99.90;;;;;;5070328;28;20220;-85
2022/11/27 02:38:43;;;;;;;6.03;5.13;;;1.40;99.90;;;;;;5044161;28;20173;-86
2022/11/27 02:41:18;;;;;;;10.97;5.77;;;1.50;99.90;;;;;;5039634;28;20180;-85
2022/11/27 02:43:49;;;;;;;8.30;5.37;;;1.40;99.90;;;;;;5051151;28;20248;-85
2022/11/27 02:46:17;;;;;;;6.87;5.60;;;1.40;99.90;;;;;;5059473;28;20199;-85
2022/11/27 02:48:51;;;;;;;7.97;5.77;;;1.50;99.90;;;;;;5075129;28;20245;-85
2022/11/27 02:51:30;;;;;;;10.40;6.97;;;1.50;99.90;;;;;;5059499;28;20170;-85
2022/11/27 02:54:01;;;;;;;7.50;5.13;;;1.50;99.90;;;;;;5059128;28;20256;-85
2022/11/27 02:56:29;;;;;;;6.00;5.13;;;1.50;99.90;;;;;;5059557;28;20218;-86
2022/11/27 02:58:58;;;;;;;6.80;5.00;;;1.50;99.90;;;;;;5059369;28;20236;-85
2022/11/27 03:01:32;;;;;;;6.27;4.90;;;1.40;99.90;;;;;;5059603;28;20180;-85
2022/11/27 03:04:00;;;;;;;5.90;3.93;;;1.30;99.90;;;;;;5059158;28;20225;-85
2022/11/27 03:06:36;;;;;;;6.63;4.50;;;1.30;99.90;;;;;;5039161;28;20249;-85
2022/11/27 03:09:07;;;;;;;6.67;4.63;;;1.30;99.90;;;;;;5055543;28;20177;-85
2022/11/27 03:11:34;;;;;;;4.93;4.10;;;1.20;99.90;;;;;;5039564;28;20172;-85
2022/11/27 03:14:06;;;;;;;8.17;5.30;;;1.20;99.90;;;;;;5055661;28;20204;-85
2022/11/27 03:16:38;;;;;;;5.57;4.53;;;1.20;99.90;;;;;;5039098;28;20282;-85
2022/11/27 03:19:09;;;;;;;6.03;4.60;;;1.10;99.90;;;;;;5070794;28;20188;-85
2022/11/27 03:21:42;;;;;;;5.40;4.40;;;1.10;99.90;;;;;;5055743;28;20173;-85
2022/11/27 03:24:09;;;;;;;5.23;4.37;;;1.10;99.90;;;;;;5054823;28;20286;-85
2022/11/27 03:26:38;;;;;;;6.37;4.47;;;1.20;99.90;;;;;;5071942;28;20215;-85
2022/11/27 03:29:13;;;;;;;9.03;4.37;;;1.20;99.90;;;;;;5055205;28;20184;-85
2022/11/27 03:31:40;;;;;;;4.50;4.00;;;1.20;99.90;;;;;;5091193;28;20167;-85
2022/11/27 03:34:06;;;;;;;11.37;4.93;;;1.10;99.90;;;;;;5058295;28;20208;-85
2022/11/27 03:36:32;;;;;;;6.37;4.00;;;1.20;99.90;;;;;;5058868;28;20192;-85
2022/11/27 03:38:58;;;;;;;5.73;4.57;;;1.20;99.90;;;;;;5058430;28;20188;-85
2022/11/27 03:41:32;;;;;;;6.03;4.37;;;1.10;99.90;;;;;;5058478;28;20177;-85
2022/11/27 03:44:30;;;;;;;6.67;4.80;;;1.10;99.90;;;;;;5058371;28;20192;-85
2022/11/27 03:46:59;;;;;;;6.00;4.90;;;1.10;99.90;;;;;;5058580;28;20208;-85
2022/11/27 03:50:03;;;;;;;5.17;4.60;;;1.10;99.90;;;;;;5058795;28;20181;-85
2022/11/27 03:52:52;;;;;;;8.47;4.77;;;1.20;99.90;;;;;;5075349;28;20190;-85
2022/11/27 03:55:54;;;;;;;5.60;4.40;;;1.10;99.90;;;;;;5074855;28;20759;-85
2022/11/27 03:58:49;;;;;;;7.77;4.57;;;1.10;99.90;;;;;;5058064;28;20233;-85
2022/11/27 04:01:24;;;;;;;11.80;4.83;;;1.10;99.90;;;;;;5038805;28;20259;-85
2022/11/27 04:03:50;;;;;;;6.47;4.97;;;1.10;99.90;;;;;;5055158;28;20190;-85
2022/11/27 04:06:16;;;;;;;6.33;4.83;;;1.10;99.90;;;;;;5073781;28;20212;-85
2022/11/27 04:08:42;;;;;;;5.90;4.33;;;1.10;99.90;;;;;;5058008;28;20181;-85
2022/11/27 04:11:08;;;;;;;5.80;4.03;;;1.00;99.90;;;;;;5056416;28;20187;-85
2022/11/27 04:13:34;;;;;;;9.83;4.57;;;1.00;99.90;;;;;;5038288;28;20310;-85
2022/11/27 04:16:01;;;;;;;9.00;5.10;;;0.90;99.90;;;;;;5038338;28;20250;-85
2022/11/27 04:18:27;;;;;;;6.07;4.63;;;1.00;99.90;;;;;;5037963;28;20178;-85
2022/11/27 04:20:53;;;;;;;5.17;4.53;;;0.90;99.90;;;;;;5038165;28;20181;-85
2022/11/27 04:23:18;;;;;;;5.27;4.60;;;0.90;99.90;;;;;;5054947;28;20218;-85
2022/11/27 04:25:44;;;;;;;5.13;4.23;;;0.90;99.90;;;;;;5058026;28;20204;-85
2022/11/27 04:28:13;;;;;;;7.70;4.63;;;0.90;99.90;;;;;;5054518;28;20284;-85
2022/11/27 04:30:39;;;;;;;7.93;5.00;;;0.90;99.90;;;;;;5054755;28;20172;-85
2022/11/27 04:33:05;;;;;;;21.60;5.80;;;0.90;99.90;;;;;;5054879;28;20177;-85
2022/11/27 04:35:31;;;;;;;6.80;4.90;;;0.90;99.90;;;;;;5074706;28;20207;-85
2022/11/27 04:37:57;;;;;;;9.30;5.13;;;0.90;99.90;;;;;;5058182;28;20176;-85
2022/11/27 04:40:23;;;;;;;6.93;4.77;;;0.90;99.90;;;;;;5074714;28;20176;-85
2022/11/27 04:42:49;;;;;;;7.17;4.70;;;0.90;99.90;;;;;;5094333;28;20224;-85
2022/11/27 04:45:15;;;;;;;9.63;4.60;;;1.00;99.90;;;;;;5061717;28;20206;-85
2022/11/27 04:47:41;;;;;;;5.17;4.20;;;0.90;99.90;;;;;;5058357;28;20184;-85
2022/11/27 04:50:08;;;;;;;6.53;4.73;;;0.90;99.90;;;;;;5075358;28;20211;-85
2022/11/27 04:52:34;;;;;;;14.00;5.37;;;0.90;99.90;;;;;;5075321;28;20180;-85
2022/11/27 04:55:00;;;;;;;24.30;5.90;;;0.90;99.90;;;;;;5074773;28;20224;-85
2022/11/27 04:57:26;;;;;;;6.70;4.73;;;0.90;99.90;;;;;;5073924;28;20176;-85
2022/11/27 04:59:51;;;;;;;6.70;5.33;;;0.90;99.90;;;;;;5057832;28;20169;-85
2022/11/27 05:02:17;;;;;;;8.57;5.70;;;1.00;99.90;;;;;;5074964;28;20184;-85
2022/11/27 05:04:44;;;;;;;10.40;4.80;;;1.00;99.90;;;;;;5078097;28;20213;-85
2022/11/27 05:07:12;;;;;;;13.47;4.77;;;1.00;99.90;;;;;;5061591;28;20182;-85
2022/11/27 05:09:38;;;;;;;16.03;4.50;;;1.00;99.90;;;;;;5061246;28;20188;-85
2022/11/27 05:12:04;;;;;;;7.53;5.03;;;0.90;99.90;;;;;;5061334;28;20183;-85
2022/11/27 05:14:30;;;;;;;25.30;6.83;;;0.90;99.90;;;;;;5060153;28;20211;-85
2022/11/27 05:16:58;;;;;;;9.93;4.87;;;0.90;99.90;;;;;;5077596;28;20287;-85
2022/11/27 05:19:26;;;;;;;14.20;9.87;;;0.90;99.90;;;;;;5060860;28;20211;-85
2022/11/27 05:21:53;;;;;;;34.27;20.60;;;0.90;99.90;;;;;;5061086;28;20232;-85
2022/11/27 05:24:22;;;;;;;12.83;10.03;;;0.80;99.90;;;;;;5061154;28;20196;-85
2022/11/27 05:26:48;;;;;;;18.57;7.93;;;0.80;99.90;;;;;;5060655;28;20286;-85
2022/11/27 05:29:14;;;;;;;15.60;9.47;;;0.70;99.90;;;;;;5061185;28;20183;-85
2022/11/27 05:31:41;;;;;;;6.80;5.03;;;0.70;99.90;;;;;;5061043;28;20194;-85
2022/11/27 05:34:07;;;;;;;15.40;6.97;;;0.60;99.90;;;;;;5060415;28;20239;-85
2022/11/27 05:36:34;;;;;;;9.67;5.37;;;0.60;99.90;;;;;;5060483;28;20195;-85
2022/11/27 05:39:01;;;;;;;5.67;4.43;;;0.60;99.90;;;;;;5077096;28;20228;-85
2022/11/27 05:41:27;;;;;;;11.30;6.90;;;0.50;99.90;;;;;;5061024;28;20178;-85
2022/11/27 05:43:53;;;;;;;7.10;6.00;;;0.60;99.90;;;;;;5060545;28;20190;-85
2022/11/27 05:46:20;;;;;;;11.20;6.40;;;0.60;99.90;;;;;;5077164;28;20204;-85
2022/11/27 05:48:46;;;;;;;5.07;4.57;;;0.60;99.90;;;;;;5076857;28;20678;-85
2022/11/27 05:51:13;;;;;;;6.10;5.13;;;0.60;99.90;;;;;;5060458;28;20187;-85
2022/11/27 05:53:39;;;;;;;4.40;4.00;;;0.60;99.90;;;;;;5059781;28;20207;-85
2022/11/27 05:56:09;;;;;;;5.43;4.27;;;0.60;99.90;;;;;;5060378;28;20267;-85
2022/11/27 05:58:36;;;;;;;8.40;5.40;;;0.60;99.90;;;;;;5093768;28;20212;-85
2022/11/27 06:01:02;;;;;;;8.03;4.03;;;0.60;99.90;;;;;;5056907;28;20180;-85
2022/11/27 06:03:28;;;;;;;6.50;3.87;;;0.50;99.90;;;;;;5073522;28;20180;-85
2022/11/27 06:05:57;;;;;;;6.77;4.70;;;0.50;99.90;;;;;;5072783;28;20210;-85
2022/11/27 06:08:23;;;;;;;4.50;4.10;;;0.50;99.90;;;;;;5059303;28;20171;-84
2022/11/27 06:10:49;;;;;;;7.10;4.20;;;0.50;99.90;;;;;;5048398;28;20180;-88
2022/11/27 06:13:16;;;;;;;6.17;4.63;;;0.50;99.90;;;;;;5073446;28;20317;-88
2022/11/27 06:15:43;;;;;;;9.30;4.63;;;0.50;99.90;;;;;;5040345;28;20204;-88
2022/11/27 06:18:11;;;;;;;19.10;6.13;;;0.40;99.90;;;;;;5039803;28;20259;-87
2022/11/27 06:20:37;;;;;;;27.50;17.83;;;0.30;99.90;;;;;;5074910;28;20174;-86
2022/11/27 06:23:03;;;;;;;9.27;6.47;;;0.40;99.90;;;;;;5071974;28;20175;-85
2022/11/27 06:25:29;;;;;;;6.93;4.40;;;0.40;99.90;;;;;;5039807;28;20285;-87
2022/11/27 06:27:57;;;;;;;6.93;5.10;;;0.40;99.90;;;;;;5039725;28;20180;-86
2022/11/27 06:30:22;;;;;;;5.77;4.60;;;0.50;99.90;;;;;;5056136;28;20177;-86
2022/11/27 06:32:48;;;;;;;4.60;4.10;;;0.50;99.90;;;;;;5056705;28;20190;-86
2022/11/27 06:35:14;;;;;;;4.50;4.10;;;0.50;99.90;;;;;;5057264;28;20213;-85
2022/11/27 06:37:40;;;;;;;5.33;4.00;;;0.40;99.90;;;;;;5076015;28;20180;-85
2022/11/27 06:40:06;;;;;;;5.27;4.30;;;0.40;99.90;;;;;;5059164;28;20275;-85
2022/11/27 06:42:32;;;;;;;5.57;4.50;;;0.40;99.90;;;;;;5058603;28;20183;-85
2022/11/27 06:44:58;;;;;;;9.40;6.13;;;0.30;99.90;;;;;;5059145;28;20304;-86
2022/11/27 06:47:24;;;;;;;23.10;5.80;;;0.20;99.90;;;;;;5057557;28;20199;-85
2022/11/27 06:49:50;;;;;;;11.77;5.10;;;0.10;99.90;;;;;;5039517;28;20214;-86
2022/11/27 06:52:16;;;;;;;6.93;4.67;;;0.10;99.90;;;;;;5066451;28;20186;-85
2022/11/27 06:54:41;;;;;;;15.17;5.50;;;0.10;99.90;;;;;;5059312;28;20259;-85
2022/11/27 06:57:07;;;;;;;30.40;7.00;;;0.20;99.90;;;;;;5059117;28;20182;-85
2022/11/27 06:59:33;;;;;;;10.97;5.60;;;0.20;99.90;;;;;;5059754;28;20183;-86
2022/11/27 07:01:59;;;;;;;9.37;6.60;;;0.20;99.90;;;;;;5059273;28;20268;-85
2022/11/27 07:04:25;;;;;;;10.00;6.37;;;0.20;99.90;;;;;;5058683;28;20187;-85
2022/11/27 07:06:53;;;;;;;37.20;8.20;;;0.30;99.90;;;;;;5055308;28;20206;-85
2022/11/27 07:09:19;;;;;;;17.23;7.17;;;0.30;99.90;;;;;;5039182;28;20212;-85
2022/11/27 07:11:45;;;;;;;5.90;5.30;;;0.20;99.90;;;;;;5075661;28;20212;-85
2022/11/27 07:14:11;;;;;;;14.80;6.13;;;0.20;99.90;;;;;;5075466;28;20309;-86
2022/11/27 07:16:37;;;;;;;12.53;6.70;;;0.20;99.90;;;;;;5058661;28;20198;-85
2022/11/27 07:19:06;;;;;;;21.77;6.97;;;0.10;99.90;;;;;;5055278;28;20180;-85
2022/11/27 07:21:34;;;;;;;20.30;6.80;;;0.10;99.90;;;;;;5056222;28;20188;-85
2022/11/27 07:24:00;;;;;;;13.00;5.97;;;0.00;99.90;;;;;;5040940;28;20296;-85
2022/11/27 07:26:29;;;;;;;16.00;6.80;;;0.00;99.90;;;;;;5038837;28;20296;-85
2022/11/27 07:28:55;;;;;;;11.10;5.80;;;-0.10;99.90;;;;;;5038453;28;20175;-85
2022/11/27 07:31:25;;;;;;;7.63;6.37;;;-0.10;99.90;;;;;;5046061;28;20183;-85
2022/11/27 07:33:52;;;;;;;14.27;6.60;;;0.00;99.90;;;;;;5058573;28;20205;-85
2022/11/27 07:36:21;;;;;;;8.57;5.83;;;0.10;99.90;;;;;;5075097;28;20206;-85
2022/11/27 07:38:47;;;;;;;13.17;6.73;;;0.10;99.90;;;;;;5058364;28;20180;-85
2022/11/27 07:41:14;;;;;;;12.60;6.33;;;0.10;99.90;;;;;;5058836;28;20272;-86
2022/11/27 07:43:41;;;;;;;7.93;6.67;;;0.10;99.90;;;;;;5056676;28;20214;-85
2022/11/27 07:46:11;;;;;;;10.97;7.87;;;0.10;99.90;;;;;;5038798;28;20204;-85
2022/11/27 07:48:37;;;;;;;8.63;7.57;;;0.20;99.90;;;;;;5038608;28;20223;-85
2022/11/27 07:51:12;;;;;;;8.03;5.90;;;0.30;99.90;;;;;;5055046;28;20604;-85
2022/11/27 07:53:40;;;;;;;7.43;5.70;;;0.40;99.90;;;;;;5038651;28;20211;-86
2022/11/27 07:56:08;;;;;;;6.37;5.50;;;0.50;99.90;;;;;;5038597;28;20204;-87
2022/11/27 07:58:34;;;;;;;6.37;5.40;;;0.60;99.90;;;;;;5038405;28;20190;-86
2022/11/27 08:01:00;;;;;;;6.40;5.50;;;0.60;99.90;;;;;;5066492;28;20179;-87
2022/11/27 08:03:26;;;;;;;6.77;5.60;;;0.70;99.90;;;;;;5038317;28;20211;-85
2022/11/27 08:05:52;;;;;;;7.10;5.67;;;0.70;99.90;;;;;;5053460;28;20231;-85
2022/11/27 08:08:17;;;;;;;6.27;5.67;;;0.80;99.90;;;;;;5058048;28;20247;-85
2022/11/27 08:10:43;;;;;;;6.97;6.03;;;0.70;99.90;;;;;;5058178;28;20180;-85
2022/11/27 08:13:09;;;;;;;7.63;5.70;;;0.80;99.90;;;;;;5071447;28;20272;-86
2022/11/27 08:15:36;;;;;;;6.47;5.57;;;0.80;99.90;;;;;;5054898;28;20216;-86
2022/11/27 08:18:02;;;;;;;7.50;5.67;;;0.80;99.90;;;;;;5075486;28;20173;-85
2022/11/27 08:20:28;;;;;;;6.83;5.97;;;0.80;99.90;;;;;;5062131;28;20176;-86
2022/11/27 08:22:54;;;;;;;9.27;6.60;;;0.90;99.90;;;;;;5062088;28;20181;-85
2022/11/27 08:25:20;;;;;;;6.47;5.40;;;0.90;99.90;;;;;;5062033;28;20210;-85
2022/11/27 08:27:47;;;;;;;18.33;10.63;;;1.00;99.90;;;;;;5061873;28;20187;-85
2022/11/27 08:30:14;;;;;;;20.20;11.87;;;1.00;99.90;;;;;;5062235;28;20183;-85
2022/11/27 08:32:42;;;;;;;37.57;21.07;;;1.00;99.90;;;;;;5062099;28;20214;-85
2022/11/27 08:35:11;;;;;;;11.43;8.23;;;1.00;99.90;;;;;;5052367;28;20215;-86
2022/11/27 08:37:37;;;;;;;7.37;5.77;;;1.10;99.90;;;;;;5065170;28;20192;-85
2022/11/27 08:40:03;;;;;;;6.90;5.73;;;1.20;99.90;;;;;;5061276;28;20180;-85
2022/11/27 08:42:30;;;;;;;7.13;6.00;;;1.30;99.90;;;;;;5078335;28;20672;-86
2022/11/27 08:44:56;;;;;;;6.77;5.53;;;1.40;99.90;;;;;;5078491;28;20176;-86
2022/11/27 08:47:21;;;;;;;7.57;5.87;;;1.40;99.90;;;;;;5058128;28;20173;-86
2022/11/27 08:49:47;;;;;;;6.67;5.47;;;1.50;99.90;;;;;;5058458;28;20180;-86
2022/11/27 08:52:13;;;;;;;5.97;4.87;;;1.60;99.90;;;;;;5058414;28;20188;-85
2022/11/27 08:54:39;;;;;;;6.83;5.53;;;1.60;99.90;;;;;;5058091;28;20216;-85
2022/11/27 08:57:05;;;;;;;6.47;5.57;;;1.70;99.90;;;;;;5044571;28;20170;-86
2022/11/27 08:59:31;;;;;;;5.70;5.20;;;1.80;99.90;;;;;;5058272;28;20170;-86
2022/11/27 09:01:57;;;;;;;6.00;5.40;;;1.90;99.90;;;;;;5058109;28;20185;-86
2022/11/27 09:04:22;;;;;;;5.87;5.20;;;1.90;99.90;;;;;;5044605;28;20184;-86
2022/11/27 09:06:48;;;;;;;6.73;5.50;;;2.00;99.90;;;;;;5077670;28;20203;-85
2022/11/27 09:09:15;;;;;;;6.37;5.63;;;2.00;99.90;;;;;;5078195;28;20244;-85
2022/11/27 09:11:42;;;;;;;6.87;5.77;;;2.10;99.90;;;;;;5061211;28;20179;-86
2022/11/27 09:14:08;;;;;;;7.33;6.60;;;2.20;99.90;;;;;;5061075;28;20204;-86
2022/11/27 09:16:34;;;;;;;7.37;6.33;;;2.20;99.90;;;;;;5061174;28;20244;-86
2022/11/27 09:19:01;;;;;;;9.30;6.17;;;2.30;99.90;;;;;;5060891;28;20180;-86
2022/11/27 09:21:30;;;;;;;9.90;7.83;;;2.40;99.90;;;;;;5056731;28;20195;-85
2022/11/27 09:23:58;;;;;;;11.00;8.03;;;2.40;99.90;;;;;;5074826;28;20177;-86
2022/11/27 09:26:25;;;;;;;9.57;7.50;;;2.40;99.90;;;;;;5057548;28;20227;-85
2022/11/27 09:28:53;;;;;;;7.60;6.80;;;2.50;99.90;;;;;;5056670;28;20192;-86
2022/11/27 09:31:20;;;;;;;9.43;6.43;;;2.50;99.90;;;;;;5057432;28;20193;-86
2022/11/27 09:33:46;;;;;;;7.10;6.40;;;2.60;99.90;;;;;;5056820;28;20192;-86
2022/11/27 09:36:17;;;;;;;12.03;7.33;;;2.70;99.90;;;;;;5049585;28;20193;-87
2022/11/27 09:38:44;;;;;;;8.63;7.13;;;2.80;99.90;;;;;;5057196;28;20261;-86
2022/11/27 09:41:13;;;;;;;10.40;8.10;;;2.80;99.90;;;;;;5055546;28;20641;-86
2022/11/27 09:43:55;;;;;;;8.27;6.83;;;2.90;99.90;;;;;;5076825;28;20181;-86
2022/11/27 09:46:37;;;;;;;10.73;7.60;;;3.00;99.90;;;;;;5056985;28;20193;-86
2022/11/27 09:49:13;;;;;;;10.80;7.33;;;2.90;99.90;;;;;;5046995;28;20181;-88
2022/11/27 09:51:46;;;;;;;7.80;6.83;;;3.10;99.90;;;;;;5051201;28;20275;-86
2022/11/27 09:54:32;;;;;;;8.27;7.33;;;3.10;99.90;;;;;;5076773;28;20660;-86
2022/11/27 09:56:59;;;;;;;10.93;7.03;;;3.20;99.90;;;;;;5060139;28;20184;-86
2022/11/27 09:59:34;;;;;;;7.90;6.97;;;3.20;99.90;;;;;;5056852;28;20177;-86
2022/11/27 10:02:01;;;;;;;9.23;7.77;;;3.30;99.90;;;;;;5071492;28;20176;-86
2022/11/27 10:04:27;;;;;;;10.47;7.37;;;3.30;99.90;;;;;;5067381;28;20184;-86
2022/11/27 10:07:11;;;;;;;25.07;11.83;;;3.20;99.90;;;;;;5044221;28;20192;-85
2022/11/27 10:09:37;;;;;;;11.77;7.53;;;3.30;99.90;;;;;;5060315;28;20197;-85
2022/11/27 10:12:40;;;;;;;15.00;8.47;;;3.40;99.90;;;;;;5042476;28;20331;-86
2022/11/27 10:15:32;;;;;;;11.73;8.00;;;3.50;99.90;;;;;;5043696;28;20205;-86
2022/11/27 10:18:46;;;;;;;9.33;7.43;;;3.70;99.90;;;;;;5075286;28;20173;-86
2022/11/27 10:21:44;;;;;;;8.40;7.40;;;3.80;99.90;;;;;;4969265;28;20234;-86
2022/11/27 10:24:35;;;;;;;10.07;7.60;;;3.90;99.90;;;;;;5061494;28;20186;-86
2022/11/27 10:27:09;;;;;;;9.30;7.43;;;4.00;99.90;;;;;;5039098;28;20203;-86
2022/11/27 10:29:44;;;;;;;8.90;7.20;;;4.10;99.90;;;;;;5039569;28;20221;-86
2022/11/27 10:32:19;;;;;;;7.07;6.37;;;4.20;99.90;;;;;;5063835;28;20184;-86
2022/11/27 10:34:57;;;;;;;8.03;7.20;;;4.20;99.90;;;;;;5060333;28;20275;-86
2022/11/27 10:37:40;;;;;;;8.30;6.73;;;4.20;99.90;;;;;;5063437;28;20195;-86
2022/11/27 10:40:12;;;;;;;9.03;6.80;;;4.20;99.90;;;;;;5067451;28;20169;-86
2022/11/27 10:42:37;;;;;;;8.03;6.20;;;4.30;99.90;;;;;;5056906;28;20184;-86
2022/11/27 10:45:05;;;;;;;7.73;6.67;;;4.20;99.90;;;;;;5072175;28;20539;-86
2022/11/27 10:47:39;;;;;;;7.17;5.77;;;4.20;99.90;;;;;;5053017;28;20180;-86
2022/11/27 10:50:17;;;;;;;7.50;6.63;;;4.20;99.90;;;;;;5057540;28;20184;-86
2022/11/27 10:53:03;;;;;;;8.07;6.20;;;4.20;99.90;;;;;;5069868;28;20192;-86
2022/11/27 10:55:57;;;;;;;7.33;6.23;;;4.20;99.90;;;;;;5057098;28;20217;-85
2022/11/27 10:58:55;;;;;;;7.20;5.97;;;4.10;99.90;;;;;;5054298;28;20186;-86
2022/11/27 11:01:23;;;;;;;7.10;6.30;;;4.10;99.90;;;;;;5093740;28;20244;-85
2022/11/27 11:04:09;;;;;;;7.13;5.93;;;4.20;99.90;;;;;;5057775;28;20182;-86
2022/11/27 11:06:44;;;;;;;7.03;6.20;;;4.30;99.90;;;;;;5058070;28;20207;-86
2022/11/27 11:09:26;;;;;;;7.83;6.60;;;4.40;99.90;;;;;;5068977;28;20652;-86
2022/11/27 11:11:52;;;;;;;7.83;6.70;;;4.60;99.90;;;;;;5053287;28;20176;-86
2022/11/27 11:14:24;;;;;;;8.77;6.93;;;4.50;99.90;;;;;;5047275;28;20204;-86
2022/11/27 11:16:51;;;;;;;9.17;7.03;;;4.60;99.90;;;;;;5051692;28;20205;-86
2022/11/27 11:19:24;;;;;;;7.20;6.37;;;4.80;99.90;;;;;;5055723;28;20193;-86
2022/11/27 11:21:51;;;;;;;9.50;7.07;;;5.00;99.90;;;;;;5072722;28;20187;-86
2022/11/27 11:24:27;;;;;;;9.23;7.07;;;5.20;99.90;;;;;;5054112;28;20177;-86
2022/11/27 11:26:59;;;;;;;8.17;6.57;;;5.30;99.90;;;;;;5061471;28;20261;-86
2022/11/27 11:29:27;;;;;;;9.37;7.63;;;5.40;99.90;;;;;;5038796;28;20174;-86
2022/11/27 11:31:55;;;;;;;9.50;7.40;;;5.50;99.90;;;;;;5038769;28;20186;-86
2022/11/27 11:34:31;;;;;;;7.63;6.83;;;5.60;99.90;;;;;;5041369;28;20202;-86
2022/11/27 11:36:59;;;;;;;8.07;6.87;;;5.60;99.90;;;;;;5060660;28;20200;-86
2022/11/27 11:39:31;;;;;;;8.50;7.13;;;5.70;99.90;;;;;;5038396;28;20250;-87
2022/11/27 11:41:57;;;;;;;7.70;6.50;;;5.70;99.90;;;;;;5038557;28;20181;-87
2022/11/27 11:44:34;;;;;;;7.10;6.20;;;5.60;99.90;;;;;;5043195;28;20290;-87
2022/11/27 11:47:00;;;;;;;7.73;6.53;;;5.70;99.90;;;;;;5054642;28;20719;-87
2022/11/27 11:49:30;;;;;;;7.73;6.63;;;5.80;99.90;;;;;;5054770;28;20183;-87
2022/11/27 11:52:32;;;;;;;7.20;5.80;;;5.80;99.90;;;;;;5055191;28;20194;-86
2022/11/27 11:55:18;;;;;;;8.23;6.77;;;5.90;99.90;;;;;;5040258;28;20198;-86
2022/11/27 11:58:01;;;;;;;7.03;6.27;;;6.10;99.90;;;;;;5091567;28;20170;-87
2022/11/27 12:00:41;;;;;;;9.27;7.07;;;6.30;99.90;;;;;;5049668;28;20172;-86
2022/11/27 12:03:32;;;;;;;6.93;6.20;;;6.50;99.90;;;;;;5057697;28;20193;-86
2022/11/27 12:06:26;;;;;;;7.37;6.33;;;6.60;99.90;;;;;;5042283;28;20204;-86
2022/11/27 12:09:11;;;;;;;7.33;6.30;;;6.70;99.90;;;;;;5067646;28;20259;-86
2022/11/27 12:11:49;;;;;;;7.50;6.23;;;6.70;99.90;;;;;;5038008;28;20173;-86
2022/11/27 12:14:39;;;;;;;9.67;7.10;;;6.50;99.90;;;;;;5037613;28;20234;-86
2022/11/27 12:17:28;;;;;;;29.13;15.33;;;6.30;99.90;;;;;;5037780;28;20262;-84
2022/11/27 12:20:18;;;;;;;8.70;6.37;;;6.30;99.90;;;;;;5064660;28;20168;-86
2022/11/27 12:23:11;;;;;;;7.57;6.70;;;6.30;99.90;;;;;;5039918;28;20181;-86
2022/11/27 12:25:46;;;;;;;7.93;7.07;;;6.50;99.90;;;;;;5038103;28;20200;-85
2022/11/27 12:28:11;;;;;;;7.90;6.80;;;6.60;99.90;;;;;;5037746;28;20182;-86
2022/11/27 12:30:43;;;;;;;8.40;6.60;;;6.80;99.90;;;;;;5038454;28;20235;-86
2022/11/27 12:33:21;;;;;;;6.53;5.80;;;7.00;99.90;;;;;;5054589;28;20217;-86
2022/11/27 12:35:47;;;;;;;7.40;6.60;;;7.00;99.90;;;;;;5052671;28;20216;-86
2022/11/27 12:38:48;;;;;;;8.80;6.60;;;7.10;99.90;;;;;;5037535;28;20180;-86
2022/11/27 12:41:32;;;;;;;8.00;7.20;;;7.20;99.90;;;;;;5017207;28;20188;-86
2022/11/27 12:44:01;;;;;;;8.67;7.23;;;7.20;99.90;;;;;;5071514;28;20185;-86
2022/11/27 12:46:45;;;;;;;10.33;7.63;;;7.30;99.90;;;;;;5055051;28;20201;-86
2022/11/27 12:49:40;;;;;;;8.10;6.90;;;7.50;99.90;;;;;;5054453;28;20181;-86
2022/11/27 12:52:23;;;;;;;8.13;6.90;;;7.70;99.90;;;;;;5042547;28;20193;-86
2022/11/27 12:55:02;;;;;;;7.80;6.90;;;7.70;99.90;;;;;;5037724;28;20224;-86
2022/11/27 12:57:55;;;;;;;8.97;7.30;;;7.80;99.90;;;;;;5038098;28;20172;-86
2022/11/27 13:00:23;;;;;;;7.00;6.30;;;7.70;99.90;;;;;;5067777;28;20629;-85
2022/11/27 13:03:05;;;;;;;6.43;5.83;;;7.70;99.90;;;;;;5057673;28;20203;-86
2022/11/27 13:05:54;;;;;;;8.23;6.97;;;7.60;99.90;;;;;;5061395;28;20300;-86
2022/11/27 13:08:45;;;;;;;6.63;5.93;;;7.60;99.90;;;;;;5061385;28;20251;-86
2022/11/27 13:11:15;;;;;;;9.57;7.10;;;7.60;99.90;;;;;;5053025;28;20267;-86
2022/11/27 13:13:51;;;;;;;7.80;6.73;;;7.60;99.90;;;;;;5061270;28;20180;-86